createdAt,value
2023-04-06T00:02:20.513Z,5.47
2023-04-06T00:04:48.495Z,5.43
2023-04-06T00:07:16.364Z,6.10
2023-04-06T00:09:44.198Z,5.60
2023-04-06T00:12:13.430Z,5.47
2023-04-06T00:14:41.734Z,6.53
2023-04-06T00:17:09.949Z,6.13
2023-04-06T00:19:37.920Z,5.87
2023-04-06T00:22:05.935Z,5.50
2023-04-06T00:24:33.846Z,6.43
2023-04-06T00:27:02.169Z,6.63
2023-04-06T00:29:31.347Z,5.17
2023-04-06T00:31:59.217Z,6.60
2023-04-06T00:34:27.117Z,5.80
2023-04-06T00:36:54.969Z,5.23
2023-04-06T00:39:23.004Z,5.90
2023-04-06T00:41:53.339Z,5.80
2023-04-06T00:44:21.545Z,5.77
2023-04-06T00:46:50.875Z,6.90
2023-04-06T00:49:19.007Z,5.23
2023-04-06T00:51:46.851Z,6.07
2023-04-06T00:54:14.718Z,6.70
2023-04-06T00:56:44.213Z,6.17
2023-04-06T00:59:13.472Z,6.13
2023-04-06T01:01:41.394Z,5.90
2023-04-06T01:04:10.848Z,6.93
2023-04-06T01:06:38.720Z,5.90
2023-04-06T01:09:06.870Z,6.33
2023-04-06T01:11:34.959Z,5.10
2023-04-06T01:14:02.786Z,5.10
2023-04-06T01:16:30.900Z,5.70
2023-04-06T01:18:58.797Z,5.53
2023-04-06T01:21:28.147Z,4.77
2023-04-06T01:23:57.343Z,5.17
2023-04-06T01:26:25.167Z,5.73
2023-04-06T01:28:53.053Z,4.47
2023-04-06T01:31:21.253Z,5.73
2023-04-06T01:33:49.287Z,5.53
2023-04-06T01:36:17.241Z,5.60
2023-04-06T01:38:45.569Z,5.63
2023-04-06T01:41:14.882Z,5.40
2023-04-06T01:43:42.711Z,4.70
2023-04-06T01:46:10.644Z,5.10
2023-04-06T01:48:38.491Z,4.57
2023-04-06T01:51:07.080Z,5.27
2023-04-06T01:53:34.887Z,5.50
2023-04-06T01:56:03.007Z,4.70
2023-04-06T01:58:32.191Z,4.60
2023-04-06T02:01:00.135Z,5.60
2023-04-06T02:03:28.097Z,5.63
2023-04-06T02:05:56.018Z,4.70
2023-04-06T02:08:23.840Z,5.30
2023-04-06T02:10:51.688Z,3.73
2023-04-06T02:13:19.516Z,4.40
2023-04-06T02:15:48.764Z,4.90
2023-04-06T02:18:18.489Z,5.03
2023-04-06T02:20:46.620Z,4.40
2023-04-06T02:23:14.425Z,4.87
2023-04-06T02:25:42.611Z,4.33
2023-04-06T02:28:10.642Z,4.60
2023-04-06T02:30:38.479Z,4.77
2023-04-06T02:33:07.881Z,3.90
2023-04-06T02:35:35.976Z,5.00
2023-04-06T02:38:03.864Z,4.67
2023-04-06T02:40:31.704Z,4.07
2023-04-06T02:42:59.539Z,4.43
2023-04-06T02:45:27.383Z,4.50
2023-04-06T02:47:55.347Z,4.27
2023-04-06T02:50:24.536Z,4.17
2023-04-06T02:52:52.374Z,4.00
2023-04-06T02:55:22.388Z,3.87
2023-04-06T02:57:50.423Z,4.10
2023-04-06T03:00:18.843Z,4.30
2023-04-06T03:02:46.801Z,3.80
2023-04-06T03:05:14.741Z,4.30
2023-04-06T03:07:43.981Z,4.47
2023-04-06T03:10:12.009Z,4.40
2023-04-06T03:12:39.815Z,3.77
2023-04-06T03:15:08.590Z,3.83
2023-04-06T03:17:36.434Z,3.80
2023-04-06T03:20:04.615Z,3.83
2023-04-06T03:22:32.446Z,4.23
2023-04-06T03:25:03.561Z,4.30
2023-04-06T03:27:31.818Z,4.07
2023-04-06T03:29:59.685Z,3.70
2023-04-06T03:32:27.591Z,4.10
2023-04-06T03:34:55.491Z,4.20
2023-04-06T03:37:23.444Z,5.13
2023-04-06T03:39:51.457Z,4.30
2023-04-06T03:42:20.788Z,3.53
2023-04-06T03:44:48.638Z,4.10
2023-04-06T03:47:16.549Z,4.20
2023-04-06T03:49:44.554Z,3.70
2023-04-06T03:52:12.417Z,4.60
2023-04-06T03:54:40.272Z,4.50
2023-04-06T03:57:08.124Z,4.90
2023-04-06T03:59:37.421Z,4.73
2023-04-06T04:02:05.520Z,3.97
2023-04-06T04:04:33.430Z,4.33
2023-04-06T04:07:01.423Z,5.33
2023-04-06T04:09:29.857Z,4.30
2023-04-06T04:11:57.857Z,4.00
2023-04-06T04:14:26.354Z,4.97
2023-04-06T04:16:55.710Z,4.23
2023-04-06T04:19:23.609Z,3.83
2023-04-06T04:21:51.486Z,4.97
2023-04-06T04:24:19.345Z,4.57
2023-04-06T04:26:47.216Z,4.60
2023-04-06T04:29:15.320Z,4.00
2023-04-06T04:31:43.344Z,3.57
2023-04-06T04:34:12.666Z,3.70
2023-04-06T04:36:42.440Z,3.70
2023-04-06T04:39:10.382Z,4.00
2023-04-06T04:41:38.391Z,3.60
2023-04-06T04:44:06.405Z,4.50
2023-04-06T04:46:34.297Z,4.07
2023-04-06T04:49:02.124Z,4.00
2023-04-06T04:51:32.133Z,4.43
2023-04-06T04:54:01.115Z,3.93
2023-04-06T04:56:30.569Z,4.23
2023-04-06T04:58:58.525Z,4.10
2023-04-06T05:01:26.492Z,4.27
2023-04-06T05:03:54.421Z,4.67
2023-04-06T05:06:22.314Z,3.90
2023-04-06T05:08:51.511Z,4.27
2023-04-06T05:11:19.478Z,3.70
2023-04-06T05:13:47.389Z,4.20
2023-04-06T05:16:15.476Z,4.37
2023-04-06T05:18:43.439Z,4.70
2023-04-06T05:21:12.585Z,4.10
2023-04-06T05:23:40.471Z,4.40
2023-04-06T05:26:09.840Z,4.40
2023-04-06T05:28:37.800Z,3.80
2023-04-06T05:31:06.029Z,4.40
2023-04-06T05:33:35.615Z,3.93
2023-04-06T05:36:04.661Z,3.90
2023-04-06T05:38:34.251Z,3.57
2023-04-06T05:41:02.197Z,3.60
2023-04-06T05:43:31.423Z,4.20
2023-04-06T05:45:59.332Z,4.83
2023-04-06T05:48:27.181Z,4.90
2023-04-06T05:50:55.079Z,4.17
2023-04-06T05:53:23.094Z,4.73
2023-04-06T05:55:50.901Z,5.17
2023-04-06T05:58:19.117Z,4.67
2023-04-06T06:00:48.300Z,4.80
2023-04-06T06:03:16.882Z,4.67
2023-04-06T06:05:44.800Z,4.90
2023-04-06T06:08:12.698Z,5.63
2023-04-06T06:10:41.352Z,5.70
2023-04-06T06:13:09.352Z,5.03
2023-04-06T06:15:37.254Z,4.83
2023-04-06T06:18:06.881Z,5.07
2023-04-06T06:20:34.847Z,5.23
2023-04-06T06:23:02.678Z,5.13
2023-04-06T06:25:31.719Z,4.10
2023-04-06T06:27:59.978Z,6.47
2023-04-06T06:30:28.041Z,4.70
2023-04-06T06:32:55.908Z,5.30
2023-04-06T06:35:25.206Z,5.30
2023-04-06T06:37:53.093Z,4.50
2023-04-06T06:40:24.604Z,5.50
2023-04-06T06:42:53.138Z,4.80
2023-04-06T06:45:21.212Z,5.70
2023-04-06T06:47:49.213Z,5.77
2023-04-06T06:50:17.266Z,5.97
2023-04-06T06:52:46.499Z,6.97
2023-04-06T06:55:14.408Z,5.83
2023-04-06T06:57:43.278Z,6.17
2023-04-06T07:00:14.071Z,5.87
2023-04-06T07:02:42.410Z,6.27
2023-04-06T07:05:26.267Z,5.80
2023-04-06T07:07:57.573Z,6.63
2023-04-06T07:10:25.637Z,6.27
2023-04-06T07:12:53.559Z,6.97
2023-04-06T07:15:21.430Z,6.47
2023-04-06T07:17:49.322Z,6.67
2023-04-06T07:20:17.446Z,6.80
2023-04-06T07:22:46.298Z,7.00
2023-04-06T07:25:15.885Z,6.43
2023-04-06T07:27:43.751Z,7.87
2023-04-06T07:30:12.205Z,6.13
2023-04-06T07:32:40.172Z,6.40
2023-04-06T07:35:08.473Z,6.43
2023-04-06T07:37:36.350Z,6.50
2023-04-06T07:40:04.253Z,6.83
2023-04-06T07:42:34.003Z,5.83
2023-04-06T07:45:02.001Z,5.97
2023-04-06T07:47:29.878Z,6.23
2023-04-06T07:49:57.940Z,5.43
2023-04-06T07:52:25.863Z,6.40
2023-04-06T07:54:53.739Z,6.03
2023-04-06T07:57:21.604Z,4.93
2023-04-06T07:59:50.869Z,4.00
2023-04-06T08:02:18.978Z,4.03
2023-04-06T08:04:47.022Z,4.27
2023-04-06T08:07:14.867Z,4.20
2023-04-06T08:09:42.731Z,4.63
2023-04-06T08:12:10.690Z,4.30
2023-04-06T08:14:38.527Z,4.23
2023-04-06T08:17:07.777Z,4.53
2023-04-06T08:19:35.612Z,4.53
2023-04-06T08:22:03.525Z,4.53
2023-04-06T08:24:33.182Z,4.67
2023-04-06T08:27:01.300Z,4.30
2023-04-06T08:29:29.230Z,4.40
2023-04-06T08:31:57.296Z,4.43
2023-04-06T08:34:26.559Z,4.10
2023-04-06T08:36:54.512Z,4.17
2023-04-06T08:39:26.143Z,4.60
2023-04-06T08:41:57.711Z,4.80
2023-04-06T08:44:26.085Z,5.03
2023-04-06T08:46:54.298Z,4.67
2023-04-06T08:49:23.132Z,4.63
2023-04-06T08:51:52.869Z,4.77
2023-04-06T08:54:20.988Z,5.10
2023-04-06T08:56:50.482Z,4.90
2023-04-06T08:59:19.187Z,5.37
2023-04-06T09:01:47.749Z,4.73
2023-04-06T09:04:16.685Z,4.10
2023-04-06T09:06:45.113Z,4.60
2023-04-06T09:09:14.561Z,4.07
2023-04-06T09:11:49.823Z,4.93
2023-04-06T09:14:18.583Z,4.67
2023-04-06T09:16:48.398Z,4.43
2023-04-06T09:19:16.255Z,4.70
2023-04-06T09:21:44.148Z,4.20
2023-04-06T09:24:12.314Z,4.30
2023-04-06T09:26:49.418Z,3.73
2023-04-06T09:29:28.275Z,5.37
2023-04-06T09:32:05.045Z,4.47
2023-04-06T09:34:33.285Z,5.27
2023-04-06T09:37:01.224Z,5.57
2023-04-06T09:39:29.087Z,4.43
2023-04-06T09:41:58.357Z,5.60
2023-04-06T09:44:26.941Z,5.10
2023-04-06T09:47:00.442Z,5.50
2023-04-06T09:49:32.311Z,4.93
2023-04-06T09:52:02.149Z,5.20
2023-04-06T09:54:32.352Z,4.57
2023-04-06T09:57:14.853Z,5.23
2023-04-06T09:59:50.644Z,5.50
2023-04-06T10:02:31.332Z,6.07
2023-04-06T10:05:04.448Z,5.87
2023-04-06T10:07:32.469Z,5.33
2023-04-06T10:10:02.578Z,6.60
2023-04-06T10:12:32.332Z,5.30
2023-04-06T10:15:00.909Z,6.00
2023-04-06T10:17:28.818Z,5.50
2023-04-06T10:20:04.697Z,6.07
2023-04-06T10:22:45.944Z,5.73
2023-04-06T10:25:14.320Z,6.83
2023-04-06T10:27:43.560Z,5.47
2023-04-06T10:30:11.913Z,5.70
2023-04-06T10:32:40.835Z,6.10
2023-04-06T10:35:10.646Z,5.20
2023-04-06T10:37:55.695Z,5.60
2023-04-06T10:40:27.456Z,4.90
2023-04-06T10:42:58.292Z,4.97
2023-04-06T10:45:27.755Z,5.90
2023-04-06T10:47:56.843Z,6.00
2023-04-06T10:50:25.911Z,5.13
2023-04-06T10:53:04.067Z,4.80
2023-04-06T10:55:32.768Z,5.67
2023-04-06T10:58:02.041Z,5.50
2023-04-06T11:00:39.694Z,5.17
2023-04-06T11:03:17.480Z,5.60
2023-04-06T11:05:48.193Z,6.67
2023-04-06T11:08:25.648Z,4.60
2023-04-06T11:10:53.515Z,6.63
2023-04-06T11:13:22.774Z,5.10
2023-04-06T11:15:50.818Z,6.17
2023-04-06T11:18:20.721Z,5.70
2023-04-06T11:20:50.303Z,5.40
2023-04-06T11:23:25.201Z,4.50
2023-04-06T11:25:53.593Z,5.20
2023-04-06T11:28:23.217Z,5.23
2023-04-06T11:30:51.382Z,5.60
2023-04-06T11:33:25.511Z,5.70
2023-04-06T11:35:53.366Z,4.50
2023-04-06T11:38:21.992Z,4.37
2023-04-06T11:40:55.311Z,4.13
2023-04-06T11:43:29.995Z,4.60
2023-04-06T11:46:04.750Z,4.60
2023-04-06T11:48:33.318Z,5.30
2023-04-06T11:51:02.025Z,4.80
2023-04-06T11:53:30.722Z,4.40
2023-04-06T11:56:00.628Z,4.63
2023-04-06T11:58:31.818Z,4.83
2023-04-06T12:01:05.868Z,4.77
2023-04-06T12:03:33.778Z,5.27
2023-04-06T12:06:01.843Z,4.67
2023-04-06T12:08:29.692Z,3.63
2023-04-06T12:10:57.592Z,3.40
2023-04-06T12:13:25.947Z,4.00
2023-04-06T12:15:55.390Z,4.40
2023-04-06T12:18:23.246Z,3.87
2023-04-06T12:20:53.291Z,3.60
2023-04-06T12:23:24.059Z,4.87
2023-04-06T12:25:52.474Z,4.73
2023-04-06T12:28:21.643Z,3.90
2023-04-06T12:30:49.571Z,4.70
2023-04-06T12:33:19.042Z,4.70
2023-04-06T12:35:47.019Z,5.20
2023-04-06T12:38:15.114Z,4.70
2023-04-06T12:40:42.937Z,4.87
2023-04-06T12:43:10.925Z,5.13
2023-04-06T12:45:38.747Z,4.83
2023-04-06T12:48:06.738Z,4.60
2023-04-06T12:50:36.257Z,5.10
2023-04-06T12:53:04.092Z,5.37
2023-04-06T12:55:35.116Z,4.73
2023-04-06T12:58:03.115Z,4.03
2023-04-06T13:00:32.122Z,4.57
2023-04-06T13:03:00.250Z,4.23
2023-04-06T13:05:29.945Z,4.13
2023-04-06T13:08:00.097Z,4.20
2023-04-06T13:10:28.761Z,4.37
2023-04-06T13:12:56.586Z,4.50
2023-04-06T13:15:24.486Z,4.30
2023-04-06T13:17:53.772Z,5.03
2023-04-06T13:20:23.030Z,5.10
2023-04-06T13:22:50.930Z,4.10
2023-04-06T13:25:21.001Z,4.43
2023-04-06T13:27:49.664Z,4.40
2023-04-06T13:30:18.199Z,4.50
2023-04-06T13:32:46.258Z,4.87
2023-04-06T13:35:14.185Z,4.43
2023-04-06T13:37:42.045Z,4.93
2023-04-06T13:40:11.000Z,4.70
2023-04-06T13:42:41.628Z,4.60
2023-04-06T13:45:10.780Z,4.53
2023-04-06T13:47:38.734Z,4.90
2023-04-06T13:50:07.864Z,4.57
2023-04-06T13:52:37.037Z,4.80
2023-04-06T13:55:05.471Z,4.57
2023-04-06T13:57:33.287Z,4.37
2023-04-06T14:00:05.073Z,4.47
2023-04-06T14:02:35.326Z,4.90
2023-04-06T14:05:04.220Z,4.57
2023-04-06T14:07:39.415Z,4.70
2023-04-06T14:10:14.510Z,3.87
2023-04-06T14:12:42.935Z,3.93
2023-04-06T14:15:13.532Z,3.40
2023-04-06T14:17:41.432Z,4.17
2023-04-06T14:20:14.841Z,3.50
2023-04-06T14:22:43.310Z,3.57
2023-04-06T14:25:11.923Z,3.80
2023-04-06T14:27:39.734Z,3.77
2023-04-06T14:30:09.073Z,3.43
2023-04-06T14:32:38.373Z,3.00
2023-04-06T14:35:07.841Z,3.40
2023-04-06T14:37:36.011Z,3.70
2023-04-06T14:40:04.121Z,3.50
2023-04-06T14:42:32.398Z,2.80
2023-04-06T14:45:00.182Z,2.87
2023-04-06T14:47:28.220Z,3.00
2023-04-06T14:49:58.508Z,2.80
2023-04-06T14:52:26.415Z,2.77
2023-04-06T14:54:54.150Z,3.13
2023-04-06T14:57:21.924Z,2.87
2023-04-06T14:59:50.192Z,3.83
2023-04-06T15:02:18.142Z,4.37
2023-04-06T15:04:46.070Z,4.27
2023-04-06T15:07:15.604Z,3.60
2023-04-06T15:09:43.458Z,3.30
2023-04-06T15:12:11.276Z,3.47
2023-04-06T15:14:39.164Z,3.33
2023-04-06T15:17:07.190Z,4.17
2023-04-06T15:19:34.981Z,3.60
2023-04-06T15:22:02.831Z,3.90
2023-04-06T15:24:32.013Z,3.70
2023-04-06T15:26:59.903Z,2.50
2023-04-06T15:29:27.767Z,3.60
2023-04-06T15:31:56.030Z,3.37
2023-04-06T15:34:23.798Z,3.50
2023-04-06T15:36:52.363Z,3.80
2023-04-06T15:39:20.482Z,3.33
2023-04-06T15:41:49.621Z,3.17
2023-04-06T15:44:18.326Z,3.57
2023-04-06T15:46:46.116Z,3.17
2023-04-06T15:49:13.970Z,3.63
2023-04-06T15:51:42.976Z,3.70
2023-04-06T15:54:10.772Z,3.10
2023-04-06T15:56:38.511Z,3.23
2023-04-06T15:59:07.632Z,3.93
2023-04-06T16:01:35.705Z,3.40
2023-04-06T16:04:04.079Z,3.93
2023-04-06T16:06:32.506Z,3.87
2023-04-06T16:09:00.322Z,4.27
2023-04-06T16:11:28.150Z,3.20
2023-04-06T16:13:56.019Z,3.47
2023-04-06T16:16:25.406Z,2.87
2023-04-06T16:18:53.205Z,3.03
2023-04-06T16:21:21.069Z,2.97
2023-04-06T16:23:48.931Z,3.60
2023-04-06T16:26:18.035Z,3.20
2023-04-06T16:28:47.232Z,3.40
2023-04-06T16:31:19.801Z,3.17
2023-04-06T16:33:49.176Z,3.37
2023-04-06T16:36:23.093Z,3.33
2023-04-06T16:38:51.285Z,3.70
2023-04-06T16:41:19.176Z,3.20
2023-04-06T16:43:47.558Z,3.13
2023-04-06T16:46:16.159Z,2.83
2023-04-06T16:48:43.946Z,3.07
2023-04-06T16:51:13.130Z,3.13
2023-04-06T16:53:40.905Z,3.30
2023-04-06T16:58:42.430Z,3.13
2023-04-06T17:01:18.260Z,3.40
2023-04-06T17:03:47.169Z,3.20
2023-04-06T17:06:16.462Z,3.50
2023-04-06T17:08:45.338Z,3.40
2023-04-06T17:11:15.313Z,3.60
2023-04-06T17:13:44.569Z,3.10
2023-04-06T17:16:13.143Z,2.70
2023-04-06T17:18:41.086Z,3.27
2023-04-06T17:21:10.116Z,3.53
2023-04-06T17:23:39.223Z,3.77
2023-04-06T17:26:07.617Z,2.93
2023-04-06T17:28:35.649Z,3.03
2023-04-06T17:31:03.548Z,4.00
2023-04-06T17:33:32.512Z,3.67
2023-04-06T17:36:00.325Z,4.47
2023-04-06T17:38:28.218Z,3.50
2023-04-06T17:40:57.439Z,4.23
2023-04-06T17:43:25.558Z,4.17
2023-04-06T17:45:53.450Z,4.30
2023-04-06T17:48:21.396Z,4.33
2023-04-06T17:50:49.237Z,4.60
2023-04-06T17:53:20.165Z,4.27
2023-04-06T17:55:48.201Z,4.10
2023-04-06T17:58:17.326Z,4.63
2023-04-06T18:00:45.371Z,3.90
2023-04-06T18:03:13.154Z,4.37
2023-04-06T18:05:41.389Z,3.70
2023-04-06T18:08:09.155Z,4.90
2023-04-06T18:10:39.792Z,4.50
2023-04-06T18:13:08.113Z,4.50
2023-04-06T18:15:38.167Z,3.90
2023-04-06T18:18:07.327Z,3.97
2023-04-06T18:20:40.101Z,3.73
2023-04-06T18:23:07.917Z,4.00
2023-04-06T18:25:39.348Z,4.17
2023-04-06T18:28:07.620Z,4.30
2023-04-06T18:30:36.993Z,4.03
2023-04-06T18:33:06.367Z,4.57
2023-04-06T18:35:34.237Z,5.27
2023-04-06T18:38:01.997Z,4.80
2023-04-06T18:40:34.122Z,5.33
2023-04-06T18:43:02.906Z,4.87
2023-04-06T18:45:33.169Z,5.60
2023-04-06T18:48:02.905Z,5.93
2023-04-06T18:50:30.784Z,6.10
2023-04-06T18:52:58.522Z,5.33
2023-04-06T18:55:27.008Z,6.00
2023-04-06T18:57:55.392Z,6.40
2023-04-06T19:00:23.133Z,5.73
2023-04-06T19:02:51.237Z,6.23
2023-04-06T19:05:22.094Z,7.10
2023-04-06T19:07:52.494Z,9.53
2023-04-06T19:10:21.003Z,8.27
2023-04-06T19:12:48.848Z,8.47
2023-04-06T19:15:17.113Z,10.40
2023-04-06T19:17:44.965Z,11.67
2023-04-06T19:20:13.074Z,11.70
2023-04-06T19:22:42.379Z,11.50
2023-04-06T19:25:10.508Z,9.63
2023-04-06T19:27:38.398Z,9.50
2023-04-06T19:30:10.384Z,9.20
2023-04-06T19:32:38.576Z,8.40
2023-04-06T19:35:07.449Z,8.00
2023-04-06T19:37:35.991Z,7.83
2023-04-06T19:40:07.609Z,7.80
2023-04-06T19:42:35.476Z,7.10
2023-04-06T19:45:03.460Z,8.00
2023-04-06T19:47:31.385Z,8.03
2023-04-06T19:49:59.237Z,8.97
2023-04-06T19:52:27.480Z,7.97
2023-04-06T19:54:56.370Z,7.87
2023-04-06T19:57:26.031Z,7.60
2023-04-06T19:59:55.002Z,8.70
2023-04-06T20:02:23.280Z,9.00
2023-04-06T20:04:52.271Z,9.93
2023-04-06T20:07:20.110Z,10.40
2023-04-06T20:09:47.926Z,11.13
2023-04-06T20:12:15.794Z,10.93
2023-04-06T20:14:44.885Z,11.30
2023-04-06T20:17:12.671Z,10.50
2023-04-06T20:19:40.586Z,10.70
2023-04-06T20:22:08.425Z,11.07
2023-04-06T20:24:36.239Z,10.40
2023-04-06T20:27:04.159Z,11.13
2023-04-06T20:29:34.848Z,12.07
2023-04-06T20:32:04.057Z,10.43
2023-04-06T20:34:32.002Z,9.10
2023-04-06T20:37:00.439Z,10.10
2023-04-06T20:39:28.509Z,9.50
2023-04-06T20:41:57.308Z,10.07
2023-04-06T20:44:26.317Z,8.87
2023-04-06T20:46:54.339Z,10.50
2023-04-06T20:49:24.064Z,9.90
2023-04-06T20:51:52.116Z,8.90
2023-04-06T20:54:20.482Z,10.20
2023-04-06T20:56:48.465Z,10.93
2023-04-06T20:59:16.434Z,9.77
2023-04-06T21:01:44.624Z,9.93
2023-04-06T21:04:12.544Z,10.53
2023-04-06T21:06:42.061Z,8.53
2023-04-06T21:09:10.216Z,7.97
2023-04-06T21:11:38.823Z,7.20
2023-04-06T21:14:06.653Z,7.87
2023-04-06T21:16:34.595Z,7.97
2023-04-06T21:19:02.452Z,8.20
2023-04-06T21:21:30.333Z,7.63
2023-04-06T21:24:00.200Z,6.87
2023-04-06T21:26:27.978Z,7.33
2023-04-06T21:28:55.921Z,6.97
2023-04-06T21:31:23.864Z,7.70
2023-04-06T21:33:51.782Z,7.83
2023-04-06T21:36:19.777Z,7.87
2023-04-06T21:38:47.838Z,7.23
2023-04-06T21:41:17.080Z,7.17
2023-04-06T21:43:45.036Z,7.30
2023-04-06T21:46:12.895Z,7.80
2023-04-06T21:48:40.760Z,7.40
2023-04-06T21:51:08.474Z,7.33
2023-04-06T21:53:36.335Z,7.47
2023-04-06T21:56:04.226Z,8.73
2023-04-06T21:58:33.589Z,7.70
2023-04-06T22:01:01.674Z,8.30
2023-04-06T22:03:29.765Z,7.50
2023-04-06T22:05:57.690Z,7.73
2023-04-06T22:08:33.326Z,6.30
2023-04-06T22:11:01.740Z,7.07
2023-04-06T22:13:30.037Z,6.80
2023-04-06T22:15:59.240Z,6.60
2023-04-06T22:18:27.245Z,6.10
2023-04-06T22:20:55.448Z,6.50
2023-04-06T22:23:23.311Z,5.53
2023-04-06T22:25:51.355Z,5.17
2023-04-06T22:28:19.228Z,6.07
2023-04-06T22:30:47.084Z,5.63
2023-04-06T22:33:16.311Z,6.17
2023-04-06T22:35:44.176Z,5.53
2023-04-06T22:38:12.015Z,6.03
2023-04-06T22:40:42.328Z,4.87
2023-04-06T22:43:13.249Z,5.30
2023-04-06T22:45:43.225Z,6.03
2023-04-06T22:48:11.218Z,6.00
2023-04-06T22:50:40.590Z,4.87
2023-04-06T22:53:08.524Z,5.23
2023-04-06T22:55:36.610Z,6.00
2023-04-06T23:00:55.129Z,4.67
2023-04-06T23:03:23.245Z,4.47
2023-04-06T23:05:52.642Z,5.37
2023-04-06T23:08:20.482Z,5.37
2023-04-06T23:10:48.262Z,5.17
2023-04-06T23:13:16.321Z,5.07
2023-04-06T23:15:44.115Z,4.53
2023-04-06T23:18:11.932Z,5.83
2023-04-06T23:20:40.952Z,5.43
2023-04-06T23:23:10.410Z,5.40
2023-04-06T23:25:38.226Z,5.50
2023-04-06T23:28:06.208Z,4.37
2023-04-06T23:30:34.060Z,4.70
2023-04-06T23:33:02.019Z,5.20
2023-04-06T23:35:29.911Z,4.33
2023-04-06T23:37:59.202Z,4.80
2023-04-06T23:40:28.380Z,4.30
2023-04-06T23:42:56.187Z,3.87
2023-04-06T23:45:24.212Z,4.53
2023-04-06T23:47:52.082Z,4.00
2023-04-06T23:50:20.022Z,3.67
2023-04-06T23:52:47.839Z,3.90
2023-04-06T23:55:15.767Z,4.33
2023-04-06T23:57:44.930Z,3.67
